Time;durP1;ratioP1;P1;durP2;ratioP2;P2;SDS_P1;SDS_P2;PMS_P1;PMS_P2;Temp;Humidity;BMP_temperature;BMP_pressure;BME280_temperature;BME280_humidity;BME280_pressure;Samples;Min_cycle;Max_cycle;Signal;HPM_P1;HPM_P2
2022/03/18 00:00:24;;;;;;;66.60;20.48;;;;;;;;;;5072508;28;20036;-38
2022/03/18 00:02:54;;;;;;;32.88;17.63;;;;;;;;;;5072464;28;20081;-38
2022/03/18 00:05:24;;;;;;;36.95;20.02;;;;;;;;;;5072353;28;20028;-38
2022/03/18 00:07:51;;;;;;;50.47;19.92;;;;;;;;;;5072484;28;20028;-37
2022/03/18 00:10:17;;;;;;;27.15;15.48;;;;;;;;;;5072397;28;20101;-38
2022/03/18 00:12:44;;;;;;;17.58;9.90;;;;;;;;;;5072207;28;20036;-38
2022/03/18 00:15:11;;;;;;;15.27;8.80;;;;;;;;;;5072127;28;20043;-37
2022/03/18 00:17:37;;;;;;;34.17;17.75;;;;;;;;;;5072299;28;20025;-42
2022/03/18 00:20:07;;;;;;;20.30;11.45;;;;;;;;;;5072499;28;20078;-38
2022/03/18 00:22:33;;;;;;;;;;;;;;;;;;5054910;28;20430;-38
2022/03/18 00:24:58;;;;;;;65.72;29.80;;;;;;;;;;5072345;28;19962;-39
2022/03/18 00:27:26;;;;;;;86.15;37.33;;;;;;;;;;5072261;28;20124;-39
2022/03/18 00:29:54;;;;;;;64.65;28.25;;;;;;;;;;5054626;28;20053;-39
2022/03/18 00:32:23;;;;;;;65.13;30.52;;;;;;;;;;5054536;28;20074;-39
2022/03/18 00:34:49;;;;;;;51.78;25.60;;;;;;;;;;5072419;28;20029;-38
2022/03/18 00:37:14;;;;;;;69.38;29.75;;;;;;;;;;5072327;28;20017;-39
2022/03/18 00:39:40;;;;;;;90.15;37.03;;;;;;;;;;5071322;28;20106;-39
2022/03/18 00:42:06;;;;;;;99.97;40.50;;;;;;;;;;5071409;28;20025;-39
2022/03/18 00:44:31;;;;;;;92.57;38.33;;;;;;;;;;5070939;28;20545;-39
2022/03/18 00:46:57;;;;;;;79.05;34.78;;;;;;;;;;5070942;28;20036;-40
2022/03/18 00:52:27;;;;;;;65.60;29.92;;;;;;;;;;4951247;29;20031;-39
2022/03/18 00:54:52;;;;;;;57.15;27.75;;;;;;;;;;4955314;28;20082;-39
2022/03/18 00:57:17;;;;;;;54.22;25.88;;;;;;;;;;5010602;28;20121;-39
2022/03/18 00:59:46;;;;;;;52.33;23.38;;;;;;;;;;5076202;28;20024;-39
2022/03/18 01:02:11;;;;;;;52.25;25.90;;;;;;;;;;5076137;28;20047;-39
2022/03/18 01:04:36;;;;;;;51.53;26.23;;;;;;;;;;5076206;28;20147;-39
2022/03/18 01:07:02;;;;;;;53.13;25.55;;;;;;;;;;5075810;28;20024;-39
2022/03/18 01:09:27;;;;;;;49.00;24.33;;;;;;;;;;5075979;28;20032;-39
2022/03/18 01:11:54;;;;;;;55.50;25.38;;;;;;;;;;5075623;28;20103;-39
2022/03/18 01:14:21;;;;;;;64.35;30.83;;;;;;;;;;5075678;28;20127;-40
2022/03/18 01:16:46;;;;;;;72.57;35.00;;;;;;;;;;5075659;28;20032;-42
2022/03/18 01:19:12;;;;;;;69.22;31.50;;;;;;;;;;5075824;28;20044;-39
2022/03/18 01:21:38;;;;;;;76.05;33.38;;;;;;;;;;5075545;28;20024;-40
2022/03/18 01:24:04;;;;;;;83.20;34.78;;;;;;;;;;5075697;28;20407;-39
2022/03/18 01:26:30;;;;;;;66.60;30.92;;;;;;;;;;5075731;28;20016;-40
2022/03/18 01:28:57;;;;;;;72.00;33.42;;;;;;;;;;5075625;28;20074;-40
2022/03/18 01:31:23;;;;;;;61.47;28.05;;;;;;;;;;5075302;28;20047;-39
2022/03/18 01:33:49;;;;;;;53.67;26.77;;;;;;;;;;5075178;28;20086;-39
2022/03/18 01:36:14;;;;;;;96.35;41.92;;;;;;;;;;5075272;28;20029;-39
2022/03/18 01:38:40;;;;;;;43.35;22.67;;;;;;;;;;5075245;28;20361;-39
2022/03/18 01:41:05;;;;;;;43.03;22.60;;;;;;;;;;5075117;28;20020;-39
2022/03/18 01:43:44;;;;;;;34.25;15.98;;;;;;;;;;5075020;28;20028;-39
2022/03/18 01:46:10;;;;;;;17.13;10.30;;;;;;;;;;5074929;28;20074;-38
2022/03/18 01:48:36;;;;;;;38.55;18.60;;;;;;;;;;5075050;28;20028;-39
2022/03/18 01:51:06;;;;;;;16.73;11.45;;;;;;;;;;5075081;28;20468;-39
2022/03/18 01:53:34;;;;;;;11.80;8.05;;;;;;;;;;5075127;28;20103;-39
2022/03/18 01:56:00;;;;;;;27.55;14.27;;;;;;;;;;5074729;28;20460;-39
2022/03/18 01:58:25;;;;;;;32.97;15.60;;;;;;;;;;5074750;28;20028;-39
2022/03/18 02:00:51;;;;;;;43.15;22.08;;;;;;;;;;5075033;28;20025;-39
2022/03/18 02:03:17;;;;;;;20.98;13.18;;;;;;;;;;5074716;28;20472;-41
2022/03/18 02:05:43;;;;;;;49.05;22.30;;;;;;;;;;5074207;28;20362;-39
2022/03/18 02:08:09;;;;;;;42.63;22.00;;;;;;;;;;5074643;28;20039;-40
2022/03/18 02:10:35;;;;;;;27.65;15.00;;;;;;;;;;5074655;28;20025;-41
2022/03/18 02:13:01;;;;;;;63.67;28.00;;;;;;;;;;5074726;28;20040;-39
2022/03/18 02:15:26;;;;;;;70.75;28.80;;;;;;;;;;5074465;28;20041;-39
2022/03/18 02:17:52;;;;;;;55.22;26.33;;;;;;;;;;5074518;28;20061;-39
2022/03/18 02:20:17;;;;;;;51.47;25.83;;;;;;;;;;5074998;28;20102;-39
2022/03/18 02:22:45;;;;;;;30.15;17.38;;;;;;;;;;5074696;28;20438;-39
2022/03/18 02:25:12;;;;;;;48.30;24.45;;;;;;;;;;5074236;28;20067;-39
2022/03/18 02:27:38;;;;;;;38.38;17.52;;;;;;;;;;5074293;28;20031;-39
2022/03/18 02:30:06;;;;;;;34.67;18.63;;;;;;;;;;5074259;28;20477;-39
2022/03/18 02:32:31;;;;;;;47.13;22.27;;;;;;;;;;5074090;28;20035;-39
2022/03/18 02:34:57;;;;;;;59.53;25.35;;;;;;;;;;5074446;28;20096;-39
2022/03/18 02:37:23;;;;;;;56.42;26.25;;;;;;;;;;5074144;28;20043;-41
2022/03/18 02:39:48;;;;;;;30.40;15.93;;;;;;;;;;5074298;28;20028;-39
2022/03/18 02:42:14;;;;;;;55.10;23.25;;;;;;;;;;5074044;28;20637;-39
2022/03/18 02:44:39;;;;;;;56.22;23.75;;;;;;;;;;5073905;28;20028;-39
2022/03/18 02:47:05;;;;;;;50.13;25.00;;;;;;;;;;5074181;28;20357;-42
2022/03/18 02:49:31;;;;;;;52.08;24.20;;;;;;;;;;5074101;28;20372;-39
2022/03/18 02:51:56;;;;;;;50.63;24.45;;;;;;;;;;5073925;28;20494;-39
2022/03/18 02:54:22;;;;;;;49.03;23.80;;;;;;;;;;5074084;28;20056;-42
2022/03/18 02:56:48;;;;;;;53.45;23.65;;;;;;;;;;5073950;28;20024;-40
2022/03/18 02:59:13;;;;;;;53.10;24.40;;;;;;;;;;5073827;28;20415;-40
2022/03/18 03:01:39;;;;;;;48.88;23.10;;;;;;;;;;5073556;28;20029;-39
2022/03/18 03:04:05;;;;;;;45.70;22.13;;;;;;;;;;5073463;28;20028;-42
2022/03/18 03:09:17;;;;;;;53.00;22.52;;;;;;;;;;5073554;28;20534;-40
2022/03/18 03:11:44;;;;;;;48.17;22.60;;;;;;;;;;5073301;28;20032;-39
2022/03/18 03:14:09;;;;;;;9.18;5.53;;;;;;;;;;5073049;28;20067;-39
2022/03/18 03:16:35;;;;;;;15.43;9.65;;;;;;;;;;5072289;28;20020;-39
2022/03/18 03:19:02;;;;;;;18.92;11.93;;;;;;;;;;5073244;28;20024;-40
2022/03/18 03:21:27;;;;;;;13.85;7.63;;;;;;;;;;5073150;28;20060;-39
2022/03/18 03:23:53;;;;;;;13.38;7.13;;;;;;;;;;5073088;28;20056;-39
2022/03/18 03:26:18;;;;;;;21.02;13.30;;;;;;;;;;5073392;28;20029;-40
2022/03/18 03:28:45;;;;;;;7.20;6.47;;;;;;;;;;5073149;28;20104;-39
2022/03/18 03:31:11;;;;;;;23.00;12.85;;;;;;;;;;5055069;28;20025;-38
2022/03/18 03:33:36;;;;;;;14.07;9.88;;;;;;;;;;5073273;28;20384;-39
2022/03/18 03:36:02;;;;;;;19.75;10.75;;;;;;;;;;5073116;28;20033;-38
2022/03/18 03:38:27;;;;;;;16.92;9.25;;;;;;;;;;5073236;28;20016;-39
2022/03/18 03:40:53;;;;;;;2.75;2.15;;;;;;;;;;5072925;28;20537;-39
2022/03/18 03:43:19;;;;;;;12.73;9.23;;;;;;;;;;5072844;28;20029;-39
2022/03/18 03:45:44;;;;;;;15.57;11.27;;;;;;;;;;5073129;28;20376;-39
2022/03/18 03:48:13;;;;;;;3.58;3.28;;;;;;;;;;5073029;28;20379;-39
2022/03/18 03:50:40;;;;;;;19.60;10.85;;;;;;;;;;5072756;28;20021;-39
2022/03/18 03:53:07;;;;;;;6.10;3.65;;;;;;;;;;5072680;28;20430;-42
2022/03/18 03:55:34;;;;;;;42.78;19.45;;;;;;;;;;5073000;28;20035;-39
2022/03/18 03:57:59;;;;;;;35.78;18.35;;;;;;;;;;5072839;28;20082;-38
2022/03/18 04:00:25;;;;;;;37.83;18.88;;;;;;;;;;5072681;28;20400;-39
2022/03/18 04:02:50;;;;;;;46.38;20.95;;;;;;;;;;5072564;28;20025;-39
2022/03/18 04:05:15;;;;;;;45.45;21.15;;;;;;;;;;5072635;28;20141;-39
2022/03/18 04:07:44;;;;;;;45.25;20.10;;;;;;;;;;5072831;28;20086;-39
2022/03/18 04:10:10;;;;;;;30.50;16.30;;;;;;;;;;5072423;28;20050;-39
2022/03/18 04:12:36;;;;;;;19.63;8.52;;;;;;;;;;5072441;28;20494;-39
2022/03/18 04:15:03;;;;;;;22.52;10.60;;;;;;;;;;5072146;28;20064;-38
2022/03/18 04:17:41;;;;;;;40.95;17.23;;;;;;;;;;5072669;28;20392;-39
2022/03/18 04:20:09;;;;;;;50.05;22.55;;;;;;;;;;5072816;28;20111;-40
2022/03/18 04:22:34;;;;;;;48.33;22.33;;;;;;;;;;5072765;28;20028;-42
2022/03/18 04:25:00;;;;;;;15.52;10.18;;;;;;;;;;5072690;28;20017;-40
2022/03/18 04:27:26;;;;;;;19.45;12.15;;;;;;;;;;5072315;28;20468;-39
2022/03/18 04:29:53;;;;;;;17.55;10.05;;;;;;;;;;5076293;28;20108;-41
2022/03/18 04:32:18;;;;;;;17.75;9.88;;;;;;;;;;5076625;28;20039;-40
2022/03/18 04:34:44;;;;;;;46.55;21.35;;;;;;;;;;5076743;28;20391;-39
2022/03/18 04:37:09;;;;;;;63.28;26.25;;;;;;;;;;5076677;28;20082;-39
2022/03/18 04:39:34;;;;;;;64.35;25.92;;;;;;;;;;5076419;28;20480;-38
2022/03/18 04:42:00;;;;;;;52.45;25.30;;;;;;;;;;5076558;28;20032;-40
2022/03/18 04:44:25;;;;;;;49.45;23.80;;;;;;;;;;5076172;28;20032;-40
2022/03/18 04:46:51;;;;;;;47.83;23.05;;;;;;;;;;5058568;28;20025;-42
2022/03/18 04:49:16;;;;;;;36.35;19.75;;;;;;;;;;5076341;28;20020;-39
2022/03/18 04:51:42;;;;;;;23.92;12.93;;;;;;;;;;5076278;28;20383;-38
2022/03/18 04:54:07;;;;;;;14.32;7.85;;;;;;;;;;5076052;28;20038;-40
2022/03/18 04:59:19;;;;;;;17.23;9.77;;;;;;;;;;5076380;28;20064;-39
2022/03/18 05:01:45;;;;;;;3.40;3.10;;;;;;;;;;5076267;28;20384;-39
2022/03/18 05:04:10;;;;;;;19.70;10.80;;;;;;;;;;5057991;28;20054;-39
2022/03/18 05:06:36;;;;;;;32.90;16.90;;;;;;;;;;5076140;28;20021;-41
2022/03/18 05:09:02;;;;;;;16.95;12.10;;;;;;;;;;5075735;28;20451;-39
2022/03/18 05:11:28;;;;;;;19.33;11.35;;;;;;;;;;5075847;28;20037;-39
2022/03/18 05:13:54;;;;;;;19.65;9.75;;;;;;;;;;5075442;28;20049;-40
2022/03/18 05:16:20;;;;;;;27.88;14.23;;;;;;;;;;5075674;28;20025;-39
2022/03/18 05:18:45;;;;;;;23.65;13.60;;;;;;;;;;5075792;28;20031;-40
2022/03/18 05:21:11;;;;;;;18.88;10.55;;;;;;;;;;5075592;28;20575;-42
2022/03/18 05:23:37;;;;;;;40.33;17.52;;;;;;;;;;5075726;28;20364;-39
2022/03/18 05:26:03;;;;;;;37.17;18.42;;;;;;;;;;5076039;28;20020;-39
2022/03/18 05:28:29;;;;;;;42.38;19.17;;;;;;;;;;5075415;28;20060;-39
2022/03/18 05:30:55;;;;;;;43.78;22.13;;;;;;;;;;5075647;28;20094;-40
2022/03/18 05:33:20;;;;;;;45.33;19.52;;;;;;;;;;5075507;28;20460;-39
2022/03/18 05:35:46;;;;;;;35.35;17.27;;;;;;;;;;5075274;28;20473;-41
2022/03/18 05:38:11;;;;;;;10.48;6.50;;;;;;;;;;5075417;28;20103;-39
2022/03/18 05:40:37;;;;;;;41.35;19.23;;;;;;;;;;5074003;28;20099;-40
2022/03/18 05:43:03;;;;;;;39.90;20.83;;;;;;;;;;5075372;28;20032;-40
2022/03/18 05:45:28;;;;;;;38.25;19.40;;;;;;;;;;5074949;28;20102;-40
2022/03/18 05:47:54;;;;;;;4.78;4.28;;;;;;;;;;5075133;28;20040;-42
2022/03/18 05:50:19;;;;;;;29.35;17.27;;;;;;;;;;5074984;28;20070;-39
2022/03/18 05:52:45;;;;;;;25.17;15.50;;;;;;;;;;5074889;28;20024;-39
2022/03/18 05:55:11;;;;;;;15.27;8.40;;;;;;;;;;5074948;28;20082;-39
2022/03/18 05:57:37;;;;;;;26.15;9.75;;;;;;;;;;5074794;28;20051;-39
2022/03/18 06:00:03;;;;;;;13.20;8.65;;;;;;;;;;5075006;28;20029;-39
2022/03/18 06:02:29;;;;;;;11.63;7.13;;;;;;;;;;5075002;28;20039;-39
2022/03/18 06:04:55;;;;;;;18.42;8.88;;;;;;;;;;5074792;28;20020;-39
2022/03/18 06:07:20;;;;;;;19.75;9.13;;;;;;;;;;5074684;28;20024;-40
2022/03/18 06:12:30;;;;;;;22.95;13.95;;;;;;;;;;5074533;28;20085;-40
2022/03/18 06:14:56;;;;;;;28.23;14.18;;;;;;;;;;5074371;28;20052;-39
2022/03/18 06:17:21;;;;;;;17.55;10.20;;;;;;;;;;5074424;28;20017;-39
2022/03/18 06:19:46;;;;;;;29.83;17.48;;;;;;;;;;5074556;28;20095;-40
2022/03/18 06:22:12;;;;;;;33.63;17.70;;;;;;;;;;5074440;28;20025;-42
2022/03/18 06:24:37;;;;;;;33.85;18.13;;;;;;;;;;5074319;28;20017;-41
2022/03/18 06:27:03;;;;;;;28.00;15.27;;;;;;;;;;5074404;28;20024;-40
2022/03/18 06:29:30;;;;;;;35.50;19.35;;;;;;;;;;5074161;28;20430;-42
2022/03/18 06:31:56;;;;;;;31.35;17.77;;;;;;;;;;5074481;28;20047;-42
2022/03/18 06:34:22;;;;;;;29.95;14.23;;;;;;;;;;5074324;28;20078;-45
2022/03/18 06:36:50;;;;;;;35.50;17.63;;;;;;;;;;5074124;28;20024;-41
2022/03/18 06:39:15;;;;;;;35.88;18.63;;;;;;;;;;5074222;28;20052;-41
2022/03/18 06:41:41;;;;;;;36.40;18.65;;;;;;;;;;5073944;28;20226;-42
2022/03/18 06:44:09;;;;;;;35.63;17.80;;;;;;;;;;5074082;28;20102;-39
2022/03/18 06:46:38;;;;;;;35.78;18.92;;;;;;;;;;5073723;28;20025;-43
2022/03/18 06:49:05;;;;;;;34.30;18.23;;;;;;;;;;5073802;28;20051;-40
2022/03/18 06:51:30;;;;;;;33.40;17.38;;;;;;;;;;5073508;28;20395;-39
2022/03/18 06:53:56;;;;;;;34.50;16.27;;;;;;;;;;5073932;28;20028;-39
2022/03/18 06:56:22;;;;;;;26.70;14.55;;;;;;;;;;5073840;28;20135;-39
2022/03/18 06:58:47;;;;;;;31.95;14.70;;;;;;;;;;5073426;28;20028;-40
2022/03/18 07:01:13;;;;;;;22.15;11.95;;;;;;;;;;5073480;28;20032;-44
2022/03/18 07:03:38;;;;;;;15.05;10.23;;;;;;;;;;5073806;28;20119;-40
2022/03/18 07:06:06;;;;;;;18.60;11.75;;;;;;;;;;5073534;28;20139;-39
2022/03/18 07:08:32;;;;;;;14.23;8.10;;;;;;;;;;5073794;28;20032;-41
2022/03/18 07:10:58;;;;;;;17.33;9.63;;;;;;;;;;5073683;28;20054;-45
2022/03/18 07:13:23;;;;;;;19.45;11.73;;;;;;;;;;5073489;28;20029;-39
2022/03/18 07:15:48;;;;;;;21.05;9.48;;;;;;;;;;5073085;28;20052;-40
2022/03/18 07:18:14;;;;;;;17.10;10.38;;;;;;;;;;5073289;28;20028;-45
2022/03/18 07:20:40;;;;;;;15.10;8.32;;;;;;;;;;5073456;28;20029;-43
2022/03/18 07:23:07;;;;;;;13.10;8.77;;;;;;;;;;5073419;28;20017;-45
2022/03/18 07:25:34;;;;;;;16.88;9.05;;;;;;;;;;5073419;28;20463;-39
2022/03/18 07:28:00;;;;;;;17.60;9.48;;;;;;;;;;5073169;28;20468;-41
2022/03/18 07:30:25;;;;;;;11.60;7.43;;;;;;;;;;5072906;28;20028;-42
2022/03/18 07:32:51;;;;;;;17.42;9.95;;;;;;;;;;5055044;28;20066;-39
2022/03/18 07:35:18;;;;;;;19.73;8.68;;;;;;;;;;5072792;28;20090;-41
2022/03/18 07:37:44;;;;;;;19.73;8.88;;;;;;;;;;5072869;28;20035;-46
2022/03/18 07:40:11;;;;;;;15.45;8.23;;;;;;;;;;5072812;28;20021;-48
2022/03/18 07:42:44;;;;;;;21.90;9.13;;;;;;;;;;5072875;28;20050;-40
2022/03/18 07:45:17;;;;;;;17.10;10.63;;;;;;;;;;5072757;28;20058;-45
2022/03/18 07:47:43;;;;;;;13.82;8.20;;;;;;;;;;5072848;28;20353;-42
2022/03/18 07:50:09;;;;;;;19.90;8.65;;;;;;;;;;5072937;28;20032;-39
2022/03/18 07:52:34;;;;;;;13.45;8.68;;;;;;;;;;5072542;28;20132;-40
2022/03/18 07:55:00;;;;;;;17.88;9.73;;;;;;;;;;5072572;28;20024;-39
2022/03/18 07:57:26;;;;;;;13.93;8.68;;;;;;;;;;5072265;28;20031;-39
2022/03/18 07:59:51;;;;;;;11.65;7.47;;;;;;;;;;5070613;28;20103;-39
2022/03/18 08:02:16;;;;;;;13.63;6.03;;;;;;;;;;5070446;28;20067;-39
2022/03/18 08:04:42;;;;;;;8.82;5.70;;;;;;;;;;5071950;28;20028;-39
2022/03/18 08:07:07;;;;;;;13.75;7.35;;;;;;;;;;5072643;28;20037;-40
2022/03/18 08:09:33;;;;;;;12.77;6.38;;;;;;;;;;5072415;28;20025;-43
2022/03/18 08:11:58;;;;;;;11.27;6.90;;;;;;;;;;5072253;28;20032;-39
2022/03/18 08:14:24;;;;;;;14.07;7.57;;;;;;;;;;5072286;28;20048;-39
2022/03/18 08:16:50;;;;;;;13.20;8.68;;;;;;;;;;5072512;28;20464;-43
2022/03/18 08:19:15;;;;;;;12.90;7.85;;;;;;;;;;5072193;28;20031;-38
2022/03/18 08:21:41;;;;;;;11.25;7.00;;;;;;;;;;5071925;28;20031;-39
2022/03/18 08:24:07;;;;;;;9.93;6.35;;;;;;;;;;5072534;28;20059;-39
2022/03/18 08:26:36;;;;;;;12.30;6.15;;;;;;;;;;5072174;28;20628;-44
2022/03/18 08:29:03;;;;;;;10.18;6.00;;;;;;;;;;5072506;28;20349;-43
2022/03/18 08:31:30;;;;;;;16.75;6.30;;;;;;;;;;5072060;28;20028;-42
2022/03/18 08:33:56;;;;;;;8.70;6.25;;;;;;;;;;5072237;28;20107;-41
2022/03/18 08:36:22;;;;;;;16.23;7.15;;;;;;;;;;5072373;28;20024;-42
2022/03/18 08:38:47;;;;;;;10.10;5.80;;;;;;;;;;5072013;28;20029;-39
2022/03/18 08:41:13;;;;;;;10.65;5.53;;;;;;;;;;5071900;28;20486;-39
2022/03/18 08:43:38;;;;;;;12.35;7.10;;;;;;;;;;5071016;28;20056;-39
2022/03/18 08:46:03;;;;;;;11.43;6.00;;;;;;;;;;5072368;28;20060;-43
2022/03/18 08:48:29;;;;;;;11.27;6.50;;;;;;;;;;5071416;28;20487;-39
2022/03/18 08:50:54;;;;;;;12.27;6.32;;;;;;;;;;5071459;28;20028;-41
2022/03/18 08:53:20;;;;;;;14.32;6.32;;;;;;;;;;5054028;28;20028;-39
2022/03/18 08:55:46;;;;;;;10.57;6.20;;;;;;;;;;5072335;28;20094;-42
2022/03/18 08:58:11;;;;;;;12.40;5.93;;;;;;;;;;5071993;28;20082;-44
2022/03/18 09:00:37;;;;;;;12.38;6.95;;;;;;;;;;5071868;28;20024;-44
2022/03/18 09:03:03;;;;;;;9.02;5.57;;;;;;;;;;5071910;28;20033;-40
2022/03/18 09:05:29;;;;;;;10.65;7.20;;;;;;;;;;5071986;28;20028;-45
2022/03/18 09:07:55;;;;;;;10.95;5.72;;;;;;;;;;5071983;28;20036;-45
2022/03/18 09:10:20;;;;;;;11.23;6.32;;;;;;;;;;5071817;28;20035;-45
2022/03/18 09:12:47;;;;;;;10.38;6.53;;;;;;;;;;5071952;28;20033;-43
2022/03/18 09:15:13;;;;;;;10.82;6.55;;;;;;;;;;5074224;28;20070;-49
2022/03/18 09:17:39;;;;;;;8.30;5.18;;;;;;;;;;5073317;28;20124;-48
2022/03/18 09:20:06;;;;;;;11.23;6.75;;;;;;;;;;5075380;28;20032;-51
2022/03/18 09:22:31;;;;;;;12.60;6.28;;;;;;;;;;5075688;28;20021;-45
2022/03/18 09:24:57;;;;;;;12.30;6.50;;;;;;;;;;5075299;28;20103;-49
2022/03/18 09:27:23;;;;;;;10.02;6.65;;;;;;;;;;5074985;28;20032;-44
2022/03/18 09:29:48;;;;;;;13.80;6.22;;;;;;;;;;5072569;28;20028;-47
2022/03/18 09:32:15;;;;;;;12.48;6.68;;;;;;;;;;5073530;28;20028;-51
2022/03/18 09:34:41;;;;;;;7.75;5.72;;;;;;;;;;5073555;28;20078;-44
2022/03/18 09:37:06;;;;;;;8.05;5.57;;;;;;;;;;5073301;28;20021;-46
2022/03/18 09:39:32;;;;;;;8.35;5.75;;;;;;;;;;5073863;28;20036;-43
2022/03/18 09:41:58;;;;;;;12.27;6.10;;;;;;;;;;5073690;28;20505;-42
2022/03/18 09:44:23;;;;;;;12.55;6.95;;;;;;;;;;5073657;28;20024;-48
2022/03/18 09:46:51;;;;;;;13.77;8.23;;;;;;;;;;5073395;28;20029;-47
2022/03/18 09:49:19;;;;;;;20.70;6.25;;;;;;;;;;5071853;28;20107;-47
2022/03/18 09:51:47;;;;;;;13.75;6.90;;;;;;;;;;5071979;28;20025;-49
2022/03/18 09:54:13;;;;;;;13.25;6.68;;;;;;;;;;5072257;28;20029;-49
2022/03/18 09:56:40;;;;;;;16.10;7.28;;;;;;;;;;5073093;28;20060;-46
2022/03/18 09:59:05;;;;;;;13.35;7.45;;;;;;;;;;5072324;28;20102;-50
2022/03/18 10:01:31;;;;;;;10.23;6.25;;;;;;;;;;5072864;28;20473;-50
2022/03/18 10:04:07;;;;;;;12.68;6.95;;;;;;;;;;5073031;28;20028;-46
2022/03/18 10:06:34;;;;;;;10.10;6.43;;;;;;;;;;5073227;28;20029;-49
2022/03/18 10:09:00;;;;;;;12.95;7.47;;;;;;;;;;5073182;28;20028;-42
2022/03/18 10:11:27;;;;;;;13.25;7.65;;;;;;;;;;5072391;28;20024;-44
2022/03/18 10:14:01;;;;;;;12.80;7.30;;;;;;;;;;5071084;28;20500;-43
2022/03/18 10:16:36;;;;;;;10.57;7.05;;;;;;;;;;5072639;28;20037;-43
2022/03/18 10:19:45;;;;;;;14.82;8.00;;;;;;;;;;5073217;28;20028;-41
2022/03/18 10:22:10;;;;;;;12.15;6.82;;;;;;;;;;5033739;28;20047;-47
2022/03/18 10:24:37;;;;;;;10.60;7.38;;;;;;;;;;5071524;28;20388;-50
2022/03/18 10:27:13;;;;;;;13.52;8.30;;;;;;;;;;5072187;28;20032;-47
2022/03/18 10:29:47;;;;;;;15.18;6.22;;;;;;;;;;5055329;28;20055;-48
2022/03/18 10:32:14;;;;;;;13.65;7.50;;;;;;;;;;5072614;28;20029;-46
2022/03/18 10:37:26;;;;;;;10.10;6.72;;;;;;;;;;5071681;28;20116;-48
2022/03/18 10:40:01;;;;;;;11.68;7.28;;;;;;;;;;5072998;28;20024;-44
2022/03/18 10:42:26;;;;;;;15.57;7.50;;;;;;;;;;5072677;28;20032;-46
2022/03/18 10:44:58;;;;;;;12.20;7.50;;;;;;;;;;5072681;28;20069;-50
2022/03/18 10:47:27;;;;;;;10.60;7.18;;;;;;;;;;5072474;28;20448;-47
2022/03/18 10:50:11;;;;;;;12.45;6.45;;;;;;;;;;5072433;28;20025;-43
2022/03/18 10:53:00;;;;;;;14.07;7.70;;;;;;;;;;5072285;28;20059;-48
2022/03/18 10:55:26;;;;;;;12.40;7.88;;;;;;;;;;5072487;28;20116;-42
2022/03/18 10:58:00;;;;;;;14.23;7.68;;;;;;;;;;5071900;28;20103;-49
2022/03/18 11:00:31;;;;;;;16.00;8.30;;;;;;;;;;5072320;28;20028;-42
2022/03/18 11:02:58;;;;;;;14.13;8.27;;;;;;;;;;5071926;28;20059;-46
2022/03/18 11:05:25;;;;;;;13.57;7.45;;;;;;;;;;5071785;28;20527;-43
2022/03/18 11:07:54;;;;;;;11.30;7.20;;;;;;;;;;5072114;28;20032;-51
2022/03/18 11:13:05;;;;;;;13.32;8.45;;;;;;;;;;5071757;28;20086;-46
2022/03/18 11:15:32;;;;;;;10.85;6.70;;;;;;;;;;5071527;28;20071;-45
2022/03/18 11:17:59;;;;;;;13.38;7.88;;;;;;;;;;5071888;28;20392;-45
2022/03/18 11:20:26;;;;;;;10.43;6.45;;;;;;;;;;5071784;28;20029;-46
2022/03/18 11:22:51;;;;;;;18.35;7.80;;;;;;;;;;5071613;28;20032;-44
2022/03/18 11:25:18;;;;;;;17.42;7.55;;;;;;;;;;5071665;28;20021;-46
2022/03/18 11:27:45;;;;;;;15.43;8.40;;;;;;;;;;5071817;28;20070;-49
2022/03/18 11:30:22;;;;;;;12.60;7.97;;;;;;;;;;5071709;28;20024;-43
2022/03/18 11:33:06;;;;;;;11.48;7.88;;;;;;;;;;5071218;28;20120;-47
2022/03/18 11:35:49;;;;;;;12.73;7.80;;;;;;;;;;5071092;28;20074;-42
2022/03/18 11:38:22;;;;;;;14.20;8.07;;;;;;;;;;5070494;28;20567;-48
2022/03/18 11:40:58;;;;;;;13.77;7.65;;;;;;;;;;5053233;28;20032;-45
2022/03/18 11:43:37;;;;;;;12.75;8.73;;;;;;;;;;5071476;28;20035;-47
2022/03/18 11:46:17;;;;;;;11.57;7.65;;;;;;;;;;5071473;28;20028;-41
2022/03/18 11:48:52;;;;;;;17.88;8.52;;;;;;;;;;5071667;28;20028;-49
2022/03/18 11:51:42;;;;;;;14.57;9.35;;;;;;;;;;5071292;28;20388;-48
2022/03/18 11:54:13;;;;;;;;;;;;;;;;;;5071543;28;20523;-47
2022/03/18 11:56:54;;;;;;;;;;;;;;;;;;5071449;28;19912;-46
2022/03/18 11:59:29;;;;;;;15.70;9.32;;;;;;;;;;5071017;28;19912;-49
2022/03/18 12:02:02;;;;;;;14.75;9.13;;;;;;;;;;5071050;28;20036;-46
2022/03/18 12:04:34;;;;;;;17.25;9.55;;;;;;;;;;5071185;28;20021;-46
2022/03/18 12:07:09;;;;;;;15.60;9.32;;;;;;;;;;5069976;28;20492;-46
2022/03/18 12:10:07;;;;;;;15.88;9.00;;;;;;;;;;5070727;28;20483;-45
2022/03/18 12:12:39;;;;;;;15.95;9.70;;;;;;;;;;5070390;28;20040;-45
2022/03/18 12:15:09;;;;;;;18.70;9.75;;;;;;;;;;5070477;28;20049;-47
2022/03/18 12:17:51;;;;;;;17.23;8.18;;;;;;;;;;5071144;28;20024;-45
2022/03/18 12:20:19;;;;;;;14.95;8.60;;;;;;;;;;5071005;28;20449;-48
2022/03/18 12:22:46;;;;;;;21.73;8.80;;;;;;;;;;5070713;28;20024;-46
2022/03/18 12:25:13;;;;;;;17.92;10.32;;;;;;;;;;5070949;28;20108;-41
2022/03/18 12:27:41;;;;;;;13.18;9.45;;;;;;;;;;5071024;28;20016;-46
2022/03/18 12:30:11;;;;;;;18.27;9.55;;;;;;;;;;5070516;28;20024;-42
2022/03/18 12:32:51;;;;;;;15.35;9.55;;;;;;;;;;5070847;28;20058;-45
2022/03/18 12:35:18;;;;;;;20.00;10.98;;;;;;;;;;5070588;28;20050;-44
2022/03/18 12:37:45;;;;;;;17.35;10.13;;;;;;;;;;5070272;28;20036;-46
2022/03/18 12:40:16;;;;;;;18.75;10.25;;;;;;;;;;5070108;28;20357;-45
2022/03/18 12:42:52;;;;;;;14.57;8.20;;;;;;;;;;5070476;28;20028;-43
2022/03/18 12:45:38;;;;;;;27.33;10.27;;;;;;;;;;5070786;28;20032;-45
2022/03/18 12:48:06;;;;;;;36.30;10.43;;;;;;;;;;5070602;28;20021;-42
2022/03/18 12:50:45;;;;;;;16.90;9.43;;;;;;;;;;5073620;28;20032;-44
2022/03/18 12:53:16;;;;;;;17.83;9.27;;;;;;;;;;5074703;28;20032;-48
2022/03/18 12:55:44;;;;;;;17.42;9.75;;;;;;;;;;5074754;28;20028;-45
2022/03/18 12:58:13;;;;;;;20.77;11.80;;;;;;;;;;5074261;28;20028;-46
2022/03/18 13:00:39;;;;;;;14.88;8.82;;;;;;;;;;5074731;28;20052;-47
2022/03/18 13:03:09;;;;;;;11.48;7.15;;;;;;;;;;5074667;28;20060;-47
2022/03/18 13:05:35;;;;;;;11.63;7.68;;;;;;;;;;5074023;28;20034;-51
2022/03/18 13:08:07;;;;;;;19.08;10.82;;;;;;;;;;5073919;28;20103;-45
2022/03/18 13:10:34;;;;;;;18.08;11.13;;;;;;;;;;5073999;28;20507;-45
2022/03/18 13:13:11;;;;;;;17.08;11.15;;;;;;;;;;5074216;28;20119;-45
2022/03/18 13:15:40;;;;;;;17.23;11.98;;;;;;;;;;5073924;28;20071;-46
2022/03/18 13:18:15;;;;;;;18.02;11.32;;;;;;;;;;5073992;28;20037;-48
2022/03/18 13:20:41;;;;;;;8.30;5.00;;;;;;;;;;5073820;28;20031;-43
2022/03/18 13:23:09;;;;;;;15.63;8.32;;;;;;;;;;5073905;28;20105;-45
2022/03/18 13:25:38;;;;;;;14.75;7.22;;;;;;;;;;5073832;28;20031;-44
2022/03/18 13:28:04;;;;;;;20.42;11.50;;;;;;;;;;5073707;28;20028;-46
2022/03/18 13:33:14;;;;;;;21.55;11.63;;;;;;;;;;5072333;28;20090;-45
2022/03/18 13:35:53;;;;;;;21.73;11.07;;;;;;;;;;5072383;28;20032;-47
2022/03/18 13:38:22;;;;;;;20.73;10.52;;;;;;;;;;5072999;28;20046;-46
2022/03/18 13:40:58;;;;;;;20.80;11.77;;;;;;;;;;5073676;28;20078;-41
2022/03/18 13:43:28;;;;;;;15.60;9.20;;;;;;;;;;5073600;28;20036;-45
2022/03/18 13:46:12;;;;;;;;;;;;;;;;;;5073954;28;20035;-46
2022/03/18 13:48:38;;;;;;;25.08;11.00;;;;;;;;;;5073475;28;20406;-48
2022/03/18 13:51:07;;;;;;;11.25;6.68;;;;;;;;;;5073563;28;20075;-45
2022/03/18 13:53:34;;;;;;;25.80;12.00;;;;;;;;;;5055096;28;20668;-47
2022/03/18 13:56:16;;;;;;;10.90;7.22;;;;;;;;;;5073258;28;20047;-44
2022/03/18 13:58:42;;;;;;;17.15;6.25;;;;;;;;;;5073551;28;20085;-46
2022/03/18 14:01:09;;;;;;;17.65;10.13;;;;;;;;;;5072591;28;20032;-45
2022/03/18 14:03:36;;;;;;;26.52;11.82;;;;;;;;;;5073257;28;20028;-45
2022/03/18 14:06:02;;;;;;;18.35;11.98;;;;;;;;;;5073120;28;20471;-45
2022/03/18 14:08:28;;;;;;;23.38;11.93;;;;;;;;;;5072821;28;20111;-47
2022/03/18 14:10:59;;;;;;;18.90;12.48;;;;;;;;;;5073241;28;20032;-44
2022/03/18 14:13:30;;;;;;;22.42;12.30;;;;;;;;;;5073255;28;20136;-44
2022/03/18 14:15:56;;;;;;;21.73;11.75;;;;;;;;;;5072589;28;20048;-49
2022/03/18 14:18:22;;;;;;;25.73;12.68;;;;;;;;;;5072959;28;20051;-44
2022/03/18 14:20:48;;;;;;;30.25;14.73;;;;;;;;;;5073151;28;20107;-43
2022/03/18 14:23:23;;;;;;;23.88;13.35;;;;;;;;;;5073129;28;20694;-41
2022/03/18 14:25:49;;;;;;;25.58;10.80;;;;;;;;;;5073079;28;20028;-45
2022/03/18 14:28:22;;;;;;;12.00;5.93;;;;;;;;;;5072776;28;20040;-46
2022/03/18 14:30:48;;;;;;;17.88;11.02;;;;;;;;;;5072626;28;20021;-45
2022/03/18 14:33:18;;;;;;;16.38;10.20;;;;;;;;;;5072546;28;20028;-46
2022/03/18 14:35:46;;;;;;;19.13;11.27;;;;;;;;;;5072677;28;20037;-46
2022/03/18 14:38:12;;;;;;;21.40;6.90;;;;;;;;;;5072715;28;20031;-41
2022/03/18 14:40:37;;;;;;;32.70;11.77;;;;;;;;;;5072768;28;20488;-47
2022/03/18 14:43:04;;;;;;;17.98;11.05;;;;;;;;;;5072513;28;20419;-47
2022/03/18 14:45:30;;;;;;;31.13;13.48;;;;;;;;;;5072322;28;20488;-47
2022/03/18 14:47:55;;;;;;;26.10;14.50;;;;;;;;;;5072544;28;20078;-44